Glen Arbor, Michigan
Current Conditions -  °F | °C
As of 7:35 AM on Friday 24 Oct 2014 (Local Time) from KFKS Reporting Station
Haze Haze  
Wind Chill: 51°   Ceiling: 400
Heat Index: 51°   Visibility: 1.5mi
Dew Point: 49°   Wind: 0mph
Humidity: 91%   Direction: NA
Pressure: 30.01"   Gusts: NA
Location:  44.9°N, 85.99°W
Report Text: KFKS 241135Z AUTO 00000KT 1 1/2SM BR OVC004 11/09 A3001 RMK AO2 T01070093
Loading
Personal Weather Stations






























Interactive Weather Map
Tropical Storm Tracking
New forecast layout! Learn more

10-Day Weather Forecast

Advertisements
Track Severe Weather on mobile